Time;durP1;ratioP1;P1;durP2;ratioP2;P2;SDS_P1;SDS_P2;PMS_P1;PMS_P2;Temp;Humidity;BMP_temperature;BMP_pressure;BME280_temperature;BME280_humidity;BME280_pressure;Samples;Min_cycle;Max_cycle;Signal;HPM_P1;HPM_P2
2023/06/27 00:01:22;;;;;;;3.35;2.10;;;28.10;50.50;;;;;;5094149;28;20113;-76
2023/06/27 00:03:51;;;;;;;2.80;2.05;;;28.20;50.60;;;;;;5094431;28;20032;-76
2023/06/27 00:06:21;;;;;;;2.33;1.67;;;28.40;50.60;;;;;;5094286;28;20119;-76
2023/06/27 00:08:47;;;;;;;4.32;2.00;;;28.20;50.50;;;;;;5094233;28;20380;-76
2023/06/27 00:11:14;;;;;;;3.25;2.25;;;28.10;50.60;;;;;;5096861;28;20081;-76
2023/06/27 00:13:41;;;;;;;2.70;2.20;;;28.00;50.60;;;;;;5093354;28;20049;-76
2023/06/27 00:16:13;;;;;;;2.58;2.08;;;28.20;50.60;;;;;;5108094;28;20424;-76
2023/06/27 00:18:40;;;;;;;;;;;28.20;50.50;;;;;;5114659;28;20027;-76
2023/06/27 00:21:07;;;;;;;3.65;2.42;;;28.00;50.60;;;;;;5114117;28;20390;-76
2023/06/27 00:23:33;;;;;;;2.47;2.10;;;28.20;50.60;;;;;;5114566;28;20039;-75
2023/06/27 00:26:03;;;;;;;2.38;2.03;;;28.20;50.60;;;;;;5114545;28;20032;-76
2023/06/27 00:28:29;;;;;;;6.40;2.40;;;28.20;50.60;;;;;;5114255;28;20080;-76
2023/06/27 00:30:56;;;;;;;2.47;2.28;;;28.20;50.70;;;;;;5113076;28;20067;-76
2023/06/27 00:33:22;;;;;;;2.40;2.20;;;28.20;50.60;;;;;;5114022;28;20020;-76
2023/06/27 00:35:48;;;;;;;3.60;2.65;;;28.20;50.80;;;;;;5114406;28;20120;-76
2023/06/27 00:38:14;;;;;;;2.15;1.70;;;28.20;50.90;;;;;;5095790;28;20028;-76
2023/06/27 00:40:40;;;;;;;3.63;1.95;;;28.10;51.00;;;;;;5114013;28;20160;-76
2023/06/27 00:43:06;;;;;;;2.20;2.05;;;28.10;50.90;;;;;;5112671;28;20063;-75
2023/06/27 00:45:32;;;;;;;2.85;1.83;;;28.10;50.90;;;;;;5113883;28;20042;-76
2023/06/27 00:48:00;;;;;;;2.35;2.15;;;28.10;50.90;;;;;;5114130;28;20034;-76
2023/06/27 00:50:30;;;;;;;2.60;1.92;;;28.10;50.90;;;;;;5100015;28;20047;-76
2023/06/27 00:52:59;;;;;;;2.40;1.90;;;28.00;51.00;;;;;;5092194;28;20467;-76
2023/06/27 00:55:25;;;;;;;3.97;2.00;;;28.10;51.00;;;;;;5075192;28;20043;-76
2023/06/27 00:57:53;;;;;;;2.53;1.85;;;28.00;51.00;;;;;;5091950;28;20042;-76
2023/06/27 01:00:19;;;;;;;2.50;1.88;;;28.00;51.10;;;;;;5093117;28;20036;-76
2023/06/27 01:02:45;;;;;;;3.00;2.17;;;28.00;51.10;;;;;;5092996;28;20841;-81
2023/06/27 01:05:14;;;;;;;3.20;1.85;;;28.00;51.20;;;;;;5091985;28;20442;-80
2023/06/27 01:08:01;;;;;;;2.72;2.20;;;28.00;51.30;;;;;;5091806;28;20062;-82
2023/06/27 01:10:44;;;;;;;2.53;1.70;;;27.90;50.80;;;;;;5091831;28;20047;-82
2023/06/27 01:13:18;;;;;;;2.55;1.90;;;28.00;51.40;;;;;;5091584;28;20387;-80
2023/06/27 01:15:44;;;;;;;3.88;2.20;;;28.00;51.70;;;;;;5091612;28;20056;-82
2023/06/27 01:18:12;;;;;;;3.38;2.53;;;27.90;51.10;;;;;;5110514;28;20040;-81
2023/06/27 01:20:39;;;;;;;2.00;1.77;;;28.00;51.60;;;;;;5093406;28;20039;-81
2023/06/27 01:23:26;;;;;;;3.38;2.05;;;28.10;51.70;;;;;;5093574;28;20085;-82
2023/06/27 01:26:07;;;;;;;3.28;1.90;;;28.00;51.70;;;;;;5109638;28;20484;-81
2023/06/27 01:28:36;;;;;;;2.15;1.65;;;28.00;51.70;;;;;;5093498;28;20352;-81
2023/06/27 01:31:03;;;;;;;3.47;2.17;;;28.10;51.70;;;;;;5110351;28;20043;-81
2023/06/27 01:33:56;;;;;;;1.67;1.50;;;28.10;51.70;;;;;;5093157;28;20035;-82
2023/06/27 01:36:46;;;;;;;2.63;1.88;;;28.10;51.80;;;;;;5093359;28;20126;-81
2023/06/27 01:39:18;;;;;;;2.53;2.05;;;28.10;51.80;;;;;;5069310;28;20090;-81
2023/06/27 01:41:50;;;;;;;3.10;2.03;;;28.10;51.90;;;;;;5069176;28;20467;-82
2023/06/27 01:44:19;;;;;;;2.45;1.70;;;28.20;51.90;;;;;;5052252;28;20439;-82
2023/06/27 01:46:47;;;;;;;2.22;1.70;;;28.10;51.90;;;;;;5069399;28;20518;-80
2023/06/27 01:49:15;;;;;;;1.67;1.42;;;28.20;52.00;;;;;;5052405;28;20047;-81
2023/06/27 01:51:41;;;;;;;2.05;1.80;;;28.00;52.00;;;;;;5052549;28;20107;-81
2023/06/27 01:54:07;;;;;;;2.70;1.90;;;28.20;52.00;;;;;;5052579;28;20040;-81
2023/06/27 01:56:34;;;;;;;2.40;2.08;;;28.20;52.00;;;;;;5052642;28;20484;-81
2023/06/27 01:59:00;;;;;;;1.90;1.80;;;28.20;52.00;;;;;;5052470;28;20036;-80
2023/06/27 02:01:26;;;;;;;2.20;2.00;;;28.20;52.00;;;;;;5036179;28;20048;-81
2023/06/27 02:03:52;;;;;;;6.85;1.95;;;28.20;52.10;;;;;;5052557;28;20110;-80
2023/06/27 02:06:18;;;;;;;2.90;1.75;;;28.20;52.10;;;;;;5035942;28;20044;-81
2023/06/27 02:08:44;;;;;;;2.60;1.92;;;28.40;52.10;;;;;;5052551;28;20065;-81
2023/06/27 02:11:10;;;;;;;2.88;2.30;;;28.30;52.20;;;;;;5035922;28;20044;-80
2023/06/27 02:13:41;;;;;;;2.72;2.03;;;28.20;52.20;;;;;;5078468;28;20070;-81
2023/06/27 02:16:07;;;;;;;2.75;1.90;;;28.30;52.20;;;;;;5088283;28;20428;-82
2023/06/27 02:18:33;;;;;;;2.83;2.25;;;28.30;52.20;;;;;;5092696;28;20043;-81
2023/06/27 02:20:59;;;;;;;2.75;1.92;;;28.30;52.20;;;;;;5110435;28;20413;-81
2023/06/27 02:23:27;;;;;;;1.88;1.65;;;28.30;52.20;;;;;;5110531;28;20123;-81
2023/06/27 02:25:53;;;;;;;2.00;1.55;;;28.40;52.30;;;;;;5111825;28;20487;-81
2023/06/27 02:28:19;;;;;;;4.13;2.13;;;28.40;52.30;;;;;;5111976;28;20024;-81
2023/06/27 02:30:45;;;;;;;3.35;2.58;;;28.30;52.30;;;;;;5111933;28;20463;-81
2023/06/27 02:33:11;;;;;;;7.38;2.70;;;28.40;52.30;;;;;;5093569;28;20077;-82
2023/06/27 02:35:37;;;;;;;3.22;2.05;;;28.30;52.30;;;;;;5112097;28;20374;-82
2023/06/27 02:38:03;;;;;;;1.92;1.73;;;28.40;52.30;;;;;;5111615;28;20110;-81
2023/06/27 02:40:29;;;;;;;2.30;2.10;;;28.30;52.30;;;;;;5110602;28;20065;-81
2023/06/27 02:42:56;;;;;;;2.08;1.90;;;28.40;52.30;;;;;;5110533;28;20035;-81
2023/06/27 02:45:23;;;;;;;6.03;2.80;;;28.30;52.30;;;;;;5111242;28;20138;-82
2023/06/27 02:47:49;;;;;;;3.40;2.08;;;28.40;52.30;;;;;;5090198;28;20535;-81
2023/06/27 02:50:15;;;;;;;3.90;2.22;;;28.30;52.30;;;;;;5091536;28;20107;-81
2023/06/27 02:52:41;;;;;;;2.03;1.70;;;28.40;52.40;;;;;;5091416;28;20123;-82
2023/06/27 02:55:08;;;;;;;2.17;1.98;;;28.40;52.40;;;;;;5090011;28;20058;-82
2023/06/27 02:57:34;;;;;;;2.90;1.77;;;28.40;52.40;;;;;;5091412;28;20036;-82
2023/06/27 03:00:03;;;;;;;1.95;1.58;;;28.40;52.40;;;;;;5089799;28;20067;-81
2023/06/27 03:02:29;;;;;;;2.45;1.90;;;28.30;52.50;;;;;;5091554;28;20040;-81
2023/06/27 03:04:55;;;;;;;2.08;1.80;;;28.40;52.50;;;;;;5090060;28;20100;-81
2023/06/27 03:07:21;;;;;;;2.75;1.90;;;28.30;52.50;;;;;;5091481;28;20143;-82
2023/06/27 03:09:47;;;;;;;3.17;1.95;;;28.30;52.50;;;;;;5090078;28;20519;-81
2023/06/27 03:12:16;;;;;;;1.50;1.40;;;28.40;52.50;;;;;;5089899;28;20043;-82
2023/06/27 03:14:42;;;;;;;2.03;1.63;;;28.30;52.50;;;;;;5089873;28;20387;-81
2023/06/27 03:17:08;;;;;;;3.72;2.22;;;28.40;52.50;;;;;;5091046;28;20039;-81
2023/06/27 03:19:34;;;;;;;1.80;1.70;;;28.40;52.50;;;;;;5091044;28;20028;-81
2023/06/27 03:22:01;;;;;;;2.95;2.30;;;28.30;52.60;;;;;;5090655;28;20074;-81
2023/06/27 03:24:27;;;;;;;1.55;1.35;;;28.30;52.60;;;;;;5090899;28;20060;-82
2023/06/27 03:26:53;;;;;;;2.90;2.00;;;28.30;52.60;;;;;;5089801;28;20059;-81
2023/06/27 03:29:19;;;;;;;2.10;1.90;;;28.40;52.60;;;;;;5090744;28;20491;-81
2023/06/27 03:31:47;;;;;;;3.42;1.90;;;28.40;52.60;;;;;;5089688;28;20445;-81
2023/06/27 03:34:13;;;;;;;2.85;1.70;;;28.30;52.60;;;;;;5089638;28;20039;-81
2023/06/27 03:36:39;;;;;;;2.67;1.75;;;28.30;52.60;;;;;;5089719;28;20043;-81
2023/06/27 03:39:05;;;;;;;2.45;1.73;;;28.30;52.60;;;;;;5089947;28;20028;-81
2023/06/27 03:41:31;;;;;;;2.55;2.00;;;28.40;52.60;;;;;;5089949;28;20032;-81
2023/06/27 03:43:57;;;;;;;3.15;1.88;;;28.30;52.60;;;;;;5072316;28;20406;-77
2023/06/27 03:46:24;;;;;;;2.80;2.13;;;28.30;52.50;;;;;;5089775;28;20126;-77
2023/06/27 03:48:54;;;;;;;3.72;2.17;;;28.30;52.30;;;;;;5073954;28;20147;-75
2023/06/27 03:51:20;;;;;;;2.72;2.30;;;28.30;51.40;;;;;;5074740;28;20048;-76
2023/06/27 03:53:46;;;;;;;3.15;2.45;;;28.40;50.30;;;;;;5091667;28;20036;-76
2023/06/27 03:56:12;;;;;;;6.90;2.90;;;28.40;49.30;;;;;;5091804;28;20483;-78
2023/06/27 03:58:38;;;;;;;9.45;3.20;;;28.20;48.50;;;;;;5091831;28;20484;-80
2023/06/27 04:01:04;;;;;;;4.63;2.80;;;28.30;47.80;;;;;;5091726;28;20050;-80
2023/06/27 04:03:30;;;;;;;3.78;2.95;;;28.40;47.30;;;;;;5091339;28;20125;-78
2023/06/27 04:05:56;;;;;;;4.35;2.78;;;28.30;47.00;;;;;;5091312;28;20051;-77
2023/06/27 04:08:24;;;;;;;3.55;2.40;;;28.40;46.80;;;;;;5074942;28;20127;-78
2023/06/27 04:10:49;;;;;;;6.32;3.10;;;28.30;46.50;;;;;;5091691;28;20048;-75
2023/06/27 04:13:15;;;;;;;3.33;2.72;;;28.30;44.80;;;;;;5091494;28;20055;-76
2023/06/27 04:15:42;;;;;;;7.90;3.42;;;28.30;44.70;;;;;;5091230;28;20074;-78
2023/06/27 04:18:10;;;;;;;3.40;2.70;;;28.30;44.60;;;;;;5074701;28;20047;-76
2023/06/27 04:20:37;;;;;;;4.18;3.08;;;28.30;45.90;;;;;;5074696;28;20036;-74
2023/06/27 04:23:04;;;;;;;7.63;2.97;;;28.40;48.70;;;;;;5107410;28;20126;-77
2023/06/27 04:25:33;;;;;;;5.30;2.83;;;28.80;51.70;;;;;;5078220;28;20038;-77
2023/06/27 04:28:00;;;;;;;5.80;2.95;;;28.90;54.00;;;;;;5094745;28;20031;-76
2023/06/27 04:30:26;;;;;;;5.07;2.92;;;28.80;48.80;;;;;;5113839;28;20046;-75
2023/06/27 04:32:52;;;;;;;3.40;2.58;;;28.70;48.40;;;;;;5113960;28;20414;-78
2023/06/27 04:35:18;;;;;;;6.07;2.60;;;28.60;47.70;;;;;;5113000;28;20032;-76
2023/06/27 04:37:47;;;;;;;5.38;2.90;;;28.60;48.00;;;;;;5114460;28;20497;-77
2023/06/27 04:40:13;;;;;;;4.03;2.42;;;28.50;48.20;;;;;;5099725;28;20548;-77
2023/06/27 04:42:40;;;;;;;6.75;2.80;;;28.40;48.30;;;;;;5092455;28;20393;-78
2023/06/27 04:45:06;;;;;;;3.75;2.10;;;28.40;48.30;;;;;;5093591;28;20052;-77
2023/06/27 04:47:36;;;;;;;3.50;2.58;;;28.50;48.40;;;;;;5093643;28;20028;-77
2023/06/27 04:50:06;;;;;;;5.28;2.75;;;28.50;48.40;;;;;;5093360;28;20061;-77
2023/06/27 04:52:32;;;;;;;3.75;2.55;;;28.50;48.50;;;;;;5093391;28;20115;-77
2023/06/27 04:54:58;;;;;;;3.55;2.35;;;28.50;48.60;;;;;;5093225;28;20157;-77
2023/06/27 04:57:24;;;;;;;2.53;2.33;;;28.50;48.70;;;;;;5075219;28;20082;-77
2023/06/27 04:59:50;;;;;;;5.88;2.78;;;28.30;48.80;;;;;;5091665;28;20498;-77
2023/06/27 05:02:16;;;;;;;5.97;2.83;;;28.40;48.70;;;;;;5091803;28;20128;-77
2023/06/27 05:04:42;;;;;;;3.22;2.83;;;28.40;46.80;;;;;;5093296;28;20032;-77
2023/06/27 05:07:08;;;;;;;3.55;2.70;;;28.20;45.30;;;;;;5091948;28;20357;-77
2023/06/27 05:09:34;;;;;;;3.97;3.20;;;28.40;44.50;;;;;;5091633;28;20032;-77
2023/06/27 05:12:00;;;;;;;3.78;2.30;;;28.30;44.70;;;;;;5093210;28;20154;-76
2023/06/27 05:14:26;;;;;;;8.80;3.70;;;28.20;44.40;;;;;;5092946;28;20065;-77
2023/06/27 05:16:52;;;;;;;10.70;3.65;;;28.30;44.30;;;;;;5092746;28;20051;-74
2023/06/27 05:19:18;;;;;;;3.97;3.50;;;28.40;44.70;;;;;;5092842;28;20475;-81
2023/06/27 05:21:44;;;;;;;6.72;3.92;;;28.40;47.10;;;;;;5092821;28;20032;-80
2023/06/27 05:24:10;;;;;;;6.50;5.07;;;28.60;48.00;;;;;;5091112;28;20038;-76
2023/06/27 05:26:36;;;;;;;5.07;3.60;;;28.50;46.60;;;;;;5074680;28;20107;-77
2023/06/27 05:29:02;;;;;;;5.10;3.58;;;28.60;46.40;;;;;;5091401;28;20186;-82
2023/06/27 05:31:28;;;;;;;6.32;3.65;;;28.50;46.10;;;;;;5092654;28;20043;-77
2023/06/27 05:33:55;;;;;;;4.20;3.25;;;28.40;46.40;;;;;;5092735;28;20548;-76
2023/06/27 05:36:21;;;;;;;5.80;3.05;;;28.40;46.40;;;;;;5092558;28;20061;-78
2023/06/27 05:38:48;;;;;;;9.18;3.47;;;28.50;46.10;;;;;;5092247;28;20036;-80
2023/06/27 05:41:18;;;;;;;3.15;2.60;;;28.50;46.10;;;;;;5092432;28;20093;-75
2023/06/27 05:43:47;;;;;;;5.07;2.72;;;28.60;45.90;;;;;;5106621;28;20106;-76
2023/06/27 05:46:13;;;;;;;7.45;2.88;;;28.60;46.10;;;;;;5092159;28;20097;-78
2023/06/27 05:48:39;;;;;;;6.82;3.13;;;28.50;46.30;;;;;;5091099;28;20075;-77
2023/06/27 05:51:05;;;;;;;4.18;3.33;;;28.60;46.50;;;;;;5092242;28;20114;-76
2023/06/27 05:53:31;;;;;;;5.30;3.25;;;28.50;43.50;;;;;;5096109;28;20028;-77
2023/06/27 05:55:57;;;;;;;5.10;3.13;;;28.50;44.40;;;;;;5109338;28;20039;-76
2023/06/27 05:58:23;;;;;;;7.05;3.70;;;28.50;46.50;;;;;;5112264;28;20150;-78
2023/06/27 06:00:50;;;;;;;6.93;3.28;;;28.60;47.70;;;;;;5105361;28;20043;-79
2023/06/27 06:03:16;;;;;;;5.57;3.22;;;28.40;47.70;;;;;;5110097;28;20039;-73
2023/06/27 06:05:42;;;;;;;7.07;3.55;;;28.60;47.00;;;;;;5093359;28;20116;-74
2023/06/27 06:08:08;;;;;;;5.03;2.80;;;28.40;45.00;;;;;;5110897;28;20077;-73
2023/06/27 06:10:34;;;;;;;6.82;3.67;;;28.30;43.90;;;;;;5111679;28;20068;-74
2023/06/27 06:13:00;;;;;;;4.68;3.45;;;28.40;44.10;;;;;;5109847;28;20035;-72
2023/06/27 06:15:26;;;;;;;5.28;3.72;;;28.30;44.50;;;;;;5111741;28;20114;-71
2023/06/27 06:17:56;;;;;;;4.25;3.35;;;28.30;47.50;;;;;;5111982;28;20348;-72
2023/06/27 06:20:25;;;;;;;5.00;3.53;;;28.30;46.40;;;;;;5111821;28;20043;-74
2023/06/27 06:22:51;;;;;;;7.43;3.50;;;28.40;46.20;;;;;;5110935;28;20038;-71
2023/06/27 06:25:17;;;;;;;5.20;3.63;;;28.50;46.30;;;;;;5093616;28;20046;-72
2023/06/27 06:27:46;;;;;;;8.05;3.92;;;28.40;46.30;;;;;;5111585;28;20046;-78
2023/06/27 06:30:12;;;;;;;6.43;3.65;;;28.40;46.30;;;;;;5112234;28;20044;-76
2023/06/27 06:32:39;;;;;;;4.57;3.15;;;28.50;46.30;;;;;;5111887;28;20063;-74
2023/06/27 06:35:06;;;;;;;7.32;4.38;;;28.40;46.20;;;;;;5111847;28;20028;-72
2023/06/27 06:37:32;;;;;;;6.45;3.08;;;28.40;46.40;;;;;;5111929;28;20043;-75
2023/06/27 06:39:58;;;;;;;4.10;3.05;;;28.50;46.50;;;;;;5111222;28;20042;-73
2023/06/27 06:42:24;;;;;;;6.15;3.33;;;28.60;46.60;;;;;;5110183;28;20043;-74
2023/06/27 06:44:50;;;;;;;6.70;3.28;;;28.60;46.60;;;;;;5108117;28;20048;-75
2023/06/27 06:47:16;;;;;;;4.93;3.10;;;28.60;46.20;;;;;;5112021;28;20039;-78
2023/06/27 06:49:42;;;;;;;7.32;3.78;;;28.80;46.40;;;;;;5110596;28;20049;-74
2023/06/27 06:52:08;;;;;;;4.40;2.65;;;28.60;46.40;;;;;;5111566;28;20035;-75
2023/06/27 06:54:38;;;;;;;5.15;2.90;;;28.60;46.40;;;;;;5110430;28;20069;-74
2023/06/27 06:57:06;;;;;;;4.57;3.20;;;28.60;46.60;;;;;;5111665;28;20089;-72
2023/06/27 06:59:32;;;;;;;5.13;3.25;;;28.60;46.70;;;;;;5111360;28;20073;-73
2023/06/27 07:01:58;;;;;;;6.55;3.65;;;28.70;46.90;;;;;;5093591;28;20036;-73
2023/06/27 07:04:24;;;;;;;7.15;3.10;;;28.70;47.00;;;;;;5091013;28;20051;-73
2023/06/27 07:06:50;;;;;;;4.93;3.13;;;28.60;47.20;;;;;;5091120;28;20624;-73
2023/06/27 07:09:16;;;;;;;7.15;3.15;;;28.60;47.30;;;;;;5090984;28;20044;-74
2023/06/27 07:11:42;;;;;;;8.80;3.22;;;28.50;47.70;;;;;;5090854;28;20404;-73
2023/06/27 07:14:08;;;;;;;4.15;2.88;;;28.60;47.70;;;;;;5091175;28;20024;-72
2023/06/27 07:16:34;;;;;;;5.68;3.42;;;28.40;47.80;;;;;;5091031;28;20456;-74
2023/06/27 07:19:02;;;;;;;4.88;3.70;;;28.50;47.90;;;;;;5090999;28;20086;-75
2023/06/27 07:21:28;;;;;;;6.93;3.33;;;28.60;47.90;;;;;;5091034;28;20480;-73
2023/06/27 07:23:54;;;;;;;3.97;3.00;;;28.50;47.60;;;;;;5092425;28;20055;-73
2023/06/27 07:26:20;;;;;;;5.60;3.50;;;28.60;47.30;;;;;;5094699;28;20044;-74
2023/06/27 07:28:46;;;;;;;6.30;2.80;;;28.60;46.80;;;;;;5095020;28;20475;-74
2023/06/27 07:31:12;;;;;;;14.80;3.78;;;28.50;46.60;;;;;;5094751;28;20040;-75
2023/06/27 07:33:38;;;;;;;3.80;3.20;;;28.50;46.60;;;;;;5093513;28;20035;-73
2023/06/27 07:36:04;;;;;;;4.65;2.83;;;28.50;46.60;;;;;;5094519;28;20475;-73
2023/06/27 07:38:31;;;;;;;7.05;3.00;;;28.50;46.70;;;;;;5094546;28;20016;-74
2023/06/27 07:40:57;;;;;;;5.20;3.47;;;28.60;46.90;;;;;;5094384;28;20032;-76
2023/06/27 07:43:23;;;;;;;6.88;3.40;;;28.50;47.00;;;;;;5094597;28;20043;-73
2023/06/27 07:45:49;;;;;;;4.40;3.22;;;28.50;46.70;;;;;;5094222;28;20051;-73
2023/06/27 07:48:17;;;;;;;6.10;3.13;;;28.60;46.70;;;;;;5094428;28;20032;-74
2023/06/27 07:50:43;;;;;;;3.42;2.85;;;28.50;46.70;;;;;;5094548;28;20027;-74
2023/06/27 07:53:09;;;;;;;3.85;2.50;;;28.40;46.60;;;;;;5093100;28;20460;-75
2023/06/27 07:55:35;;;;;;;4.70;2.85;;;28.50;46.60;;;;;;5096663;28;20051;-77
2023/06/27 07:58:01;;;;;;;4.88;2.80;;;28.70;46.50;;;;;;5094334;28;20107;-75
2023/06/27 08:00:27;;;;;;;4.25;2.33;;;28.60;46.40;;;;;;5099195;28;20114;-74
2023/06/27 08:02:53;;;;;;;5.00;2.65;;;28.50;46.40;;;;;;5114878;28;20386;-74
2023/06/27 08:05:19;;;;;;;3.67;2.88;;;28.60;46.50;;;;;;5114474;28;20031;-75
2023/06/27 08:07:45;;;;;;;5.20;2.78;;;28.50;46.00;;;;;;5114516;28;20041;-78
2023/06/27 08:10:11;;;;;;;2.65;2.35;;;28.50;46.20;;;;;;5114889;28;20023;-75
2023/06/27 08:12:38;;;;;;;6.80;3.30;;;28.50;46.30;;;;;;5114528;28;20436;-76
2023/06/27 08:15:05;;;;;;;3.25;2.30;;;28.40;45.80;;;;;;5114459;28;20035;-74
2023/06/27 08:17:31;;;;;;;3.45;2.58;;;28.40;46.40;;;;;;5114452;28;20397;-73
2023/06/27 08:19:56;;;;;;;2.53;2.13;;;28.50;46.30;;;;;;5113125;28;20150;-76
2023/06/27 08:22:23;;;;;;;9.02;2.28;;;28.40;45.90;;;;;;5112230;28;20391;-75
2023/06/27 08:24:49;;;;;;;4.28;2.13;;;28.40;46.90;;;;;;5112580;28;20043;-76
2023/06/27 08:27:16;;;;;;;5.68;3.28;;;28.70;48.00;;;;;;5114104;28;20024;-74
2023/06/27 08:29:42;;;;;;;5.97;2.80;;;29.00;49.40;;;;;;5114077;28;20128;-73
2023/06/27 08:32:08;;;;;;;4.63;3.17;;;28.80;45.00;;;;;;5095989;28;20069;-74
2023/06/27 08:34:38;;;;;;;3.85;3.05;;;28.80;44.20;;;;;;5113332;28;20028;-72
2023/06/27 08:37:05;;;;;;;3.08;2.72;;;28.80;44.20;;;;;;5114134;28;20034;-74
2023/06/27 08:39:31;;;;;;;4.65;2.58;;;28.70;45.40;;;;;;5105774;28;20031;-74
2023/06/27 08:41:57;;;;;;;5.18;2.65;;;28.70;45.20;;;;;;5113736;28;20871;-72
2023/06/27 08:44:23;;;;;;;4.75;3.05;;;28.90;49.20;;;;;;5113528;28;20124;-73
2023/06/27 08:46:50;;;;;;;6.93;5.88;;;29.10;47.90;;;;;;5113372;28;20499;-75
2023/06/27 08:49:26;;;;;;;12.75;7.95;;;29.20;47.50;;;;;;5113708;28;20475;-77
2023/06/27 08:51:56;;;;;;;5.03;3.35;;;29.20;45.90;;;;;;5113784;28;20111;-77
2023/06/27 08:54:30;;;;;;;7.45;3.15;;;29.20;45.50;;;;;;5113815;28;20039;-76
2023/06/27 08:56:58;;;;;;;6.03;3.45;;;29.30;45.40;;;;;;5112488;28;20035;-74
2023/06/27 08:59:26;;;;;;;8.48;3.47;;;29.20;45.50;;;;;;5113443;28;20097;-74
2023/06/27 09:01:54;;;;;;;4.38;3.33;;;29.20;45.80;;;;;;5096123;28;20111;-76
2023/06/27 09:04:21;;;;;;;4.35;3.95;;;29.30;45.50;;;;;;5094475;28;20627;-76
2023/06/27 09:06:47;;;;;;;7.13;2.80;;;29.20;45.10;;;;;;5092910;28;20028;-79
2023/06/27 09:09:15;;;;;;;6.30;3.63;;;29.10;45.10;;;;;;5074922;28;20044;-78
2023/06/27 09:11:43;;;;;;;4.47;2.22;;;29.20;45.20;;;;;;5093257;28;20499;-79
2023/06/27 09:14:09;;;;;;;5.05;3.80;;;29.00;44.80;;;;;;5093043;28;20032;-76
2023/06/27 09:16:35;;;;;;;4.32;3.22;;;29.10;45.60;;;;;;5092754;28;20032;-78
2023/06/27 09:19:01;;;;;;;5.80;3.42;;;29.10;45.60;;;;;;5092680;28;20603;-78
2023/06/27 09:21:31;;;;;;;7.53;3.70;;;28.90;45.10;;;;;;5092586;28;20035;-75
2023/06/27 09:23:57;;;;;;;6.50;2.72;;;28.90;45.40;;;;;;5092397;28;20036;-74
2023/06/27 09:26:27;;;;;;;4.55;2.55;;;28.90;45.40;;;;;;5092620;28;20100;-78
2023/06/27 09:28:53;;;;;;;2.35;2.20;;;29.00;48.00;;;;;;5092519;28;20066;-77
2023/06/27 09:31:20;;;;;;;6.80;3.60;;;29.70;52.00;;;;;;5091688;28;20067;-77
2023/06/27 09:33:48;;;;;;;4.30;3.65;;;30.10;51.10;;;;;;5091227;28;20038;-75
2023/06/27 09:36:36;;;;;;;9.90;3.75;;;30.00;48.50;;;;;;5109596;28;20158;-72
2023/06/27 09:39:07;;;;;;;11.18;4.65;;;29.70;48.90;;;;;;5110020;28;20078;-73
2023/06/27 09:41:41;;;;;;;6.43;4.20;;;30.10;52.70;;;;;;5110830;28;20479;-73
2023/06/27 09:44:11;;;;;;;1.35;1.25;;;30.40;54.70;;;;;;5110134;28;20075;-76
2023/06/27 09:46:37;;;;;;;3.60;3.22;;;30.60;54.00;;;;;;5109016;28;20075;-79
2023/06/27 09:49:06;;;;;;;5.40;3.30;;;30.40;47.80;;;;;;5110306;28;20466;-82
2023/06/27 09:51:34;;;;;;;3.65;2.97;;;30.10;47.30;;;;;;5093111;28;20506;-79
2023/06/27 09:54:01;;;;;;;6.18;2.92;;;30.00;46.90;;;;;;5110094;28;20036;-76
2023/06/27 09:56:31;;;;;;;3.88;3.47;;;30.10;47.20;;;;;;5109629;28;20499;-77
2023/06/27 09:59:07;;;;;;;9.85;3.58;;;30.00;47.10;;;;;;5110026;28;20108;-78
2023/06/27 10:01:36;;;;;;;4.22;3.75;;;29.80;45.90;;;;;;5103994;27;20038;-80
2023/06/27 10:04:02;;;;;;;4.45;2.75;;;29.80;46.10;;;;;;5130525;27;20039;-78
2023/06/27 10:06:29;;;;;;;3.58;3.03;;;29.90;46.20;;;;;;5110073;28;20066;-76
2023/06/27 10:08:56;;;;;;;7.75;3.55;;;29.90;46.20;;;;;;5112662;28;20047;-78
2023/06/27 10:11:22;;;;;;;5.55;3.47;;;29.90;46.20;;;;;;5112266;28;20032;-80
2023/06/27 10:13:49;;;;;;;3.92;3.28;;;29.80;46.20;;;;;;5112173;28;20866;-77
2023/06/27 10:16:17;;;;;;;4.18;3.15;;;29.80;46.20;;;;;;5112230;28;20035;-78
2023/06/27 10:18:44;;;;;;;2.95;2.58;;;29.80;46.20;;;;;;5111904;28;20036;-79
2023/06/27 10:21:11;;;;;;;4.32;3.25;;;29.90;46.30;;;;;;5112083;28;20131;-79
2023/06/27 10:23:44;;;;;;;5.97;3.05;;;29.70;46.40;;;;;;5111029;28;20456;-77
2023/06/27 10:26:10;;;;;;;6.50;3.35;;;29.80;46.50;;;;;;5110486;28;20111;-78
2023/06/27 10:28:36;;;;;;;5.47;2.95;;;29.80;46.60;;;;;;5110559;28;20111;-77
2023/06/27 10:31:05;;;;;;;4.30;3.10;;;29.70;46.60;;;;;;5110552;28;20027;-75
2023/06/27 10:33:42;;;;;;;4.38;2.80;;;29.80;46.80;;;;;;5093699;28;20506;-76
2023/06/27 10:36:09;;;;;;;2.97;2.67;;;29.70;46.70;;;;;;5089786;28;20032;-75
2023/06/27 10:38:41;;;;;;;2.75;2.40;;;29.70;46.80;;;;;;5088514;28;20055;-77
2023/06/27 10:41:11;;;;;;;4.88;2.92;;;29.70;46.90;;;;;;5088755;28;20138;-78
2023/06/27 10:43:40;;;;;;;7.25;3.92;;;29.60;47.10;;;;;;5088459;28;20059;-77
2023/06/27 10:46:07;;;;;;;5.18;2.90;;;29.50;47.30;;;;;;5088552;28;20077;-74
2023/06/27 10:48:47;;;;;;;3.40;3.00;;;29.50;47.60;;;;;;5088842;28;20457;-73
2023/06/27 10:51:24;;;;;;;3.03;2.72;;;29.50;48.00;;;;;;5055309;28;20543;-78
2023/06/27 10:54:16;;;;;;;4.25;3.20;;;29.30;48.40;;;;;;5071796;28;20044;-74
2023/06/27 10:56:50;;;;;;;6.78;2.63;;;29.30;48.20;;;;;;5048435;28;20076;-75
2023/06/27 10:59:23;;;;;;;4.40;3.17;;;29.20;48.10;;;;;;5052407;28;20063;-77
2023/06/27 11:01:52;;;;;;;4.00;2.60;;;29.40;48.20;;;;;;5052716;28;20041;-76
2023/06/27 11:04:26;;;;;;;4.50;2.75;;;29.30;48.30;;;;;;5052676;28;20140;-75
2023/06/27 11:07:00;;;;;;;7.53;3.13;;;29.30;48.40;;;;;;5052432;28;20037;-77
2023/06/27 11:09:28;;;;;;;3.15;2.42;;;29.40;48.70;;;;;;5061175;28;20511;-76
2023/06/27 11:12:07;;;;;;;5.25;3.17;;;29.30;49.30;;;;;;5072206;28;20202;-75
2023/06/27 11:14:37;;;;;;;7.60;2.75;;;29.20;49.20;;;;;;5055648;28;20041;-72
2023/06/27 11:17:04;;;;;;;5.95;2.80;;;29.20;49.30;;;;;;5072303;28;20047;-72
2023/06/27 11:19:34;;;;;;;8.18;2.65;;;29.20;49.50;;;;;;5072344;28;20542;-74
2023/06/27 11:22:01;;;;;;;10.05;2.97;;;29.20;49.80;;;;;;5072158;28;20039;-74
2023/06/27 11:24:31;;;;;;;3.25;2.50;;;29.20;49.90;;;;;;5038503;28;20109;-74
2023/06/27 11:27:00;;;;;;;8.57;3.28;;;29.00;49.90;;;;;;5072048;28;20044;-76
2023/06/27 11:29:27;;;;;;;4.45;3.17;;;29.20;49.80;;;;;;5055346;28;20466;-77
2023/06/27 11:31:56;;;;;;;4.70;3.20;;;29.20;49.80;;;;;;5072076;28;20037;-79
2023/06/27 11:34:22;;;;;;;7.10;3.10;;;29.30;49.80;;;;;;5090246;28;20051;-77
2023/06/27 11:36:48;;;;;;;4.22;2.67;;;29.30;49.80;;;;;;5093681;28;20044;-78
2023/06/27 11:39:18;;;;;;;4.72;2.78;;;29.20;49.80;;;;;;5109481;28;20056;-76
2023/06/27 11:41:45;;;;;;;4.25;2.70;;;29.20;50.00;;;;;;5094844;28;20043;-77
2023/06/27 11:44:13;;;;;;;9.07;2.83;;;29.20;50.20;;;;;;5094431;28;20052;-74
2023/06/27 11:46:50;;;;;;;4.00;2.83;;;29.10;50.20;;;;;;5094570;28;20468;-74
2023/06/27 11:49:20;;;;;;;5.50;2.58;;;29.10;50.50;;;;;;5093715;28;20564;-75
2023/06/27 11:51:46;;;;;;;5.35;2.83;;;29.20;50.50;;;;;;5112625;28;20027;-74
2023/06/27 11:54:16;;;;;;;5.60;3.13;;;29.10;50.50;;;;;;5111472;28;20036;-74
2023/06/27 11:56:42;;;;;;;4.35;2.78;;;29.30;50.70;;;;;;5114436;28;20038;-72
2023/06/27 11:59:08;;;;;;;9.50;2.78;;;29.10;51.00;;;;;;5112660;28;20059;-75
2023/06/27 12:01:42;;;;;;;3.80;2.60;;;29.10;51.10;;;;;;5111943;28;20044;-72
2023/06/27 12:04:16;;;;;;;4.75;2.97;;;29.10;51.20;;;;;;5111515;28;20035;-75
2023/06/27 12:06:46;;;;;;;5.78;2.72;;;29.20;51.30;;;;;;5112343;28;20539;-74
2023/06/27 12:09:24;;;;;;;5.15;2.60;;;29.20;51.40;;;;;;5113463;28;20351;-73
2023/06/27 12:11:52;;;;;;;5.20;3.05;;;29.00;51.50;;;;;;5111822;28;20024;-73
2023/06/27 12:14:22;;;;;;;4.65;2.90;;;29.20;51.80;;;;;;5112264;28;20053;-72
2023/06/27 12:16:48;;;;;;;5.18;2.47;;;29.10;52.10;;;;;;5114247;28;20043;-69
2023/06/27 12:19:18;;;;;;;5.55;2.47;;;29.00;52.40;;;;;;5112626;28;20067;-71
2023/06/27 12:21:44;;;;;;;5.35;2.83;;;29.00;52.90;;;;;;5101460;28;20035;-75
2023/06/27 12:24:10;;;;;;;5.65;2.40;;;29.00;53.00;;;;;;5113076;28;20050;-76
2023/06/27 12:26:36;;;;;;;3.92;3.10;;;29.00;53.20;;;;;;5110397;28;20028;-69
2023/06/27 12:29:05;;;;;;;4.55;2.53;;;29.10;53.70;;;;;;5114520;27;20564;-76
2023/06/27 12:31:32;;;;;;;6.03;2.92;;;28.90;53.10;;;;;;5090302;28;20046;-78
2023/06/27 12:34:00;;;;;;;2.60;2.30;;;28.90;53.10;;;;;;5113097;28;20112;-80
2023/06/27 12:36:27;;;;;;;3.03;2.50;;;28.90;53.60;;;;;;5108549;28;20032;-78
2023/06/27 12:38:54;;;;;;;3.67;2.60;;;28.90;53.60;;;;;;5095217;28;20074;-76
2023/06/27 12:41:21;;;;;;;2.85;2.60;;;28.90;53.60;;;;;;5092231;28;20032;-78
2023/06/27 12:43:47;;;;;;;3.78;2.60;;;28.80;53.50;;;;;;5093670;28;20504;-76
2023/06/27 12:46:14;;;;;;;5.20;2.42;;;29.00;53.90;;;;;;5093215;28;20051;-80
2023/06/27 12:48:41;;;;;;;6.13;3.03;;;28.70;53.30;;;;;;5093215;28;20077;-74
2023/06/27 12:51:08;;;;;;;4.32;2.90;;;28.80;53.20;;;;;;5111059;28;20144;-75